createdAt,value
2018-08-19T00:02:15.999Z,70.27
2018-08-19T00:04:52.237Z,70.59
2018-08-19T00:07:21.021Z,70.47
2018-08-19T00:09:49.804Z,70.66
2018-08-19T00:12:27.627Z,71.49
2018-08-19T00:14:58.159Z,71.54
2018-08-19T00:17:26.954Z,71.40
2018-08-19T00:19:55.715Z,72.11
2018-08-19T00:22:24.534Z,71.76
2018-08-19T00:24:53.310Z,72.53
2018-08-19T00:27:22.203Z,72.32
2018-08-19T00:29:51.223Z,72.46
2018-08-19T00:32:20.864Z,72.23
2018-08-19T00:34:49.683Z,72.22
2018-08-19T00:37:19.049Z,71.59
2018-08-19T00:39:48.993Z,71.82
2018-08-19T00:42:17.956Z,72.28
2018-08-19T00:44:46.883Z,72.19
2018-08-19T00:47:16.499Z,72.50
2018-08-19T00:49:45.523Z,72.57
2018-08-19T00:52:15.556Z,72.68
2018-08-19T00:54:45.559Z,72.66
2018-08-19T00:57:15.290Z,71.90
2018-08-19T00:59:44.083Z,72.36
2018-08-19T01:02:14.608Z,72.35
2018-08-19T01:04:43.439Z,72.36
2018-08-19T01:07:12.224Z,72.46
2018-08-19T01:09:41.090Z,71.75
2018-08-19T01:12:09.870Z,72.74
2018-08-19T01:14:38.768Z,72.95
2018-08-19T01:17:07.734Z,73.03
2018-08-19T01:19:36.548Z,73.50
2018-08-19T01:22:05.367Z,72.58
2018-08-19T01:24:35.130Z,73.28
2018-08-19T01:27:04.167Z,72.92
2018-08-19T01:29:38.288Z,73.18
2018-08-19T01:32:12.859Z,72.77
2018-08-19T01:35:12.951Z,72.38
2018-08-19T01:37:42.087Z,71.41
2018-08-19T01:40:14.935Z,71.67
2018-08-19T01:42:43.749Z,72.11
2018-08-19T01:45:12.592Z,72.20
2018-08-19T01:47:42.293Z,72.08
2018-08-19T01:50:13.244Z,71.89
2018-08-19T01:52:43.556Z,72.17
2018-08-19T01:55:12.875Z,72.12
2018-08-19T01:57:45.192Z,72.22
2018-08-19T02:00:15.699Z,71.61
2018-08-19T02:03:03.037Z,71.75
2018-08-19T02:05:31.852Z,71.61
2018-08-19T02:08:01.999Z,71.46
2018-08-19T02:10:31.659Z,72.15
2018-08-19T02:13:00.850Z,71.99
2018-08-19T02:15:30.874Z,71.99
2018-08-19T02:18:31.251Z,72.08
2018-08-19T02:21:00.044Z,71.27
2018-08-19T02:23:28.868Z,71.93
2018-08-19T02:25:57.698Z,72.07
2018-08-19T02:28:26.517Z,72.17
2018-08-19T02:31:00.157Z,71.37
2018-08-19T02:33:36.452Z,71.33
2018-08-19T02:36:06.707Z,72.08
2018-08-19T02:38:36.409Z,71.97
2018-08-19T02:41:05.913Z,71.34
2018-08-19T02:43:34.952Z,71.66
2018-08-19T02:46:04.645Z,71.22
2018-08-19T02:48:46.844Z,70.58
2018-08-19T02:51:17.057Z,70.60
2018-08-19T02:53:47.971Z,71.02
2018-08-19T02:56:18.366Z,71.08
2018-08-19T02:58:47.953Z,70.07
2018-08-19T03:01:18.573Z,69.84
2018-08-19T03:03:48.007Z,69.83
2018-08-19T03:06:17.098Z,69.87
2018-08-19T03:08:47.122Z,70.73
2018-08-19T03:11:19.986Z,68.71
2018-08-19T03:13:49.591Z,68.90
2018-08-19T03:16:18.483Z,69.31
2018-08-19T03:18:50.758Z,69.00
2018-08-19T03:21:20.736Z,69.60
2018-08-19T03:23:51.542Z,69.75
2018-08-19T03:26:20.440Z,69.95
2018-08-19T03:28:49.591Z,69.37
2018-08-19T03:31:18.675Z,67.97
2018-08-19T03:33:49.110Z,68.10
2018-08-19T03:36:18.051Z,69.45
2018-08-19T03:38:47.120Z,69.93
2018-08-19T03:41:15.992Z,69.85
2018-08-19T03:43:49.136Z,69.24
2018-08-19T03:46:21.759Z,70.49
2018-08-19T03:48:51.134Z,70.64
2018-08-19T03:51:20.256Z,70.43
2018-08-19T03:53:49.995Z,70.12
2018-08-19T03:56:25.459Z,69.57
2018-08-19T03:58:57.825Z,68.98
2018-08-19T04:01:45.999Z,68.14
2018-08-19T04:04:17.392Z,68.72
2018-08-19T04:06:46.223Z,68.70
2018-08-19T04:09:14.973Z,68.97
2018-08-19T04:11:43.894Z,68.16
2018-08-19T04:14:28.725Z,68.24
2018-08-19T04:17:00.477Z,68.73
2018-08-19T04:19:29.871Z,68.62
2018-08-19T04:22:01.309Z,67.77
2018-08-19T04:24:30.950Z,67.98
2018-08-19T04:27:01.148Z,68.74
2018-08-19T04:29:30.143Z,69.46
2018-08-19T04:31:58.925Z,68.34
2018-08-19T04:34:28.665Z,69.42
2018-08-19T04:36:57.445Z,69.70
2018-08-19T04:39:26.223Z,69.79
2018-08-19T04:41:55.092Z,70.02
2018-08-19T04:44:24.029Z,69.30
2018-08-19T04:46:53.388Z,69.41
2018-08-19T04:49:22.142Z,69.88
2018-08-19T04:51:51.112Z,69.12
2018-08-19T04:54:20.569Z,69.42
2018-08-19T04:56:50.768Z,69.12
2018-08-19T04:59:20.703Z,68.40
2018-08-19T05:01:49.743Z,68.08
2018-08-19T05:04:19.020Z,67.21
2018-08-19T05:06:47.837Z,67.59
2018-08-19T05:09:16.604Z,66.97
2018-08-19T05:11:45.435Z,67.45
2018-08-19T05:14:14.173Z,67.17
2018-08-19T05:16:43.092Z,65.77
2018-08-19T05:19:12.422Z,65.65
2018-08-19T05:21:41.242Z,65.08
2018-08-19T05:24:09.948Z,65.73
2018-08-19T05:26:38.767Z,65.54
2018-08-19T05:29:09.170Z,64.91
2018-08-19T05:31:48.217Z,63.78
2018-08-19T05:34:49.061Z,63.66
2018-08-19T05:37:17.799Z,63.42
2018-08-19T05:39:57.689Z,63.43
2018-08-19T05:42:26.635Z,63.15
2018-08-19T05:44:55.875Z,62.41
2018-08-19T05:47:25.460Z,61.75
2018-08-19T05:49:54.236Z,62.55
2018-08-19T05:52:24.149Z,62.20
2018-08-19T05:54:59.250Z,60.87
2018-08-19T05:57:29.883Z,61.14
2018-08-19T06:00:00.287Z,60.99
2018-08-19T06:02:35.176Z,61.29
2018-08-19T06:05:04.519Z,60.77
2018-08-19T06:07:33.463Z,60.19
2018-08-19T06:10:02.276Z,59.38
2018-08-19T06:12:31.190Z,58.77
2018-08-19T06:15:01.287Z,59.03
2018-08-19T06:17:31.268Z,59.01
2018-08-19T06:20:00.028Z,58.55
2018-08-19T06:22:39.185Z,58.65
2018-08-19T06:25:08.193Z,58.67
2018-08-19T06:27:45.728Z,58.40
2018-08-19T06:30:15.383Z,57.94
2018-08-19T06:32:45.315Z,57.53
2018-08-19T06:35:14.591Z,56.85
2018-08-19T06:37:43.387Z,56.74
2018-08-19T06:40:17.153Z,57.74
2018-08-19T06:42:46.276Z,57.29
2018-08-19T06:45:15.490Z,56.31
2018-08-19T06:47:45.152Z,55.46
2018-08-19T06:50:21.375Z,55.63
2018-08-19T06:52:51.359Z,54.96
2018-08-19T06:55:21.319Z,54.62
2018-08-19T06:57:51.078Z,54.87
2018-08-19T07:00:27.881Z,54.40
2018-08-19T07:02:59.972Z,53.85
2018-08-19T07:05:29.099Z,54.44
2018-08-19T07:07:57.904Z,54.66
2018-08-19T07:10:41.511Z,53.66
2018-08-19T07:13:15.593Z,53.64
2018-08-19T07:15:45.065Z,53.51
2018-08-19T07:18:16.252Z,52.49
2018-08-19T07:20:45.602Z,53.38
2018-08-19T07:23:14.432Z,52.86
2018-08-19T07:25:44.489Z,52.21
2018-08-19T07:28:14.774Z,52.55
2018-08-19T07:30:44.654Z,53.13
2018-08-19T07:33:14.588Z,52.31
2018-08-19T07:35:43.637Z,51.65
2018-08-19T07:38:12.504Z,51.76
2018-08-19T07:40:41.340Z,51.52
2018-08-19T07:43:10.231Z,52.11
2018-08-19T07:45:39.583Z,52.48
2018-08-19T07:48:08.526Z,53.02
2018-08-19T07:50:37.242Z,52.21
2018-08-19T07:53:06.778Z,53.01
2018-08-19T07:55:36.243Z,51.63
2018-08-19T07:58:05.931Z,53.00
2018-08-19T08:00:39.374Z,52.91
2018-08-19T08:03:09.192Z,51.70
2018-08-19T08:05:43.172Z,49.53
2018-08-19T08:08:11.943Z,48.73
2018-08-19T08:10:40.740Z,48.28
2018-08-19T08:13:10.835Z,48.97
2018-08-19T08:15:45.664Z,48.08
2018-08-19T08:18:15.648Z,46.62
2018-08-19T08:20:44.439Z,47.09
2018-08-19T08:23:22.639Z,46.76
2018-08-19T08:25:51.688Z,46.26
2018-08-19T08:28:23.672Z,45.24
2018-08-19T08:30:52.514Z,45.25
2018-08-19T08:33:22.243Z,44.88
2018-08-19T08:35:56.277Z,45.19
2018-08-19T08:38:25.144Z,43.70
2018-08-19T08:40:54.267Z,42.72
2018-08-19T08:43:24.517Z,43.57
2018-08-19T08:45:56.711Z,43.18
2018-08-19T08:48:25.582Z,43.90
2018-08-19T08:50:54.416Z,43.52
2018-08-19T08:53:31.545Z,42.79
2018-08-19T08:56:01.281Z,42.91
2018-08-19T08:58:30.048Z,43.18
2018-08-19T09:00:59.452Z,42.51
2018-08-19T09:03:30.751Z,41.81
2018-08-19T09:05:59.576Z,41.43
2018-08-19T09:08:28.578Z,42.95
2018-08-19T09:10:59.212Z,43.36
2018-08-19T09:13:28.202Z,43.70
2018-08-19T09:15:57.048Z,43.00
2018-08-19T09:18:26.397Z,44.26
2018-08-19T09:20:55.341Z,43.08
2018-08-19T09:23:24.193Z,42.55
2018-08-19T09:25:52.974Z,42.36
2018-08-19T09:28:22.075Z,42.49
2018-08-19T09:30:51.711Z,42.53
2018-08-19T09:33:21.659Z,41.62
2018-08-19T09:35:51.353Z,42.66
2018-08-19T09:38:22.230Z,40.65
2018-08-19T09:40:51.751Z,41.22
2018-08-19T09:43:21.024Z,41.51
2018-08-19T09:45:51.587Z,41.16
2018-08-19T09:48:20.740Z,41.38
2018-08-19T09:50:49.942Z,41.03
2018-08-19T09:53:20.985Z,41.86
2018-08-19T09:56:08.642Z,40.19
2018-08-19T09:58:38.287Z,40.21
2018-08-19T10:01:12.719Z,39.96
2018-08-19T10:03:42.328Z,40.00
2018-08-19T10:06:11.147Z,40.51
2018-08-19T10:08:39.931Z,41.27
2018-08-19T10:11:09.210Z,40.34
2018-08-19T10:13:37.964Z,41.48
2018-08-19T10:16:07.401Z,40.23
2018-08-19T10:18:36.612Z,40.17
2018-08-19T10:21:17.875Z,40.83
2018-08-19T10:23:46.723Z,40.24
2018-08-19T10:26:15.583Z,39.59
2018-08-19T10:28:44.437Z,39.69
2018-08-19T10:31:21.016Z,39.63
2018-08-19T10:33:52.176Z,40.13
2018-08-19T10:36:21.944Z,39.18
2018-08-19T10:38:53.735Z,39.05
2018-08-19T10:41:23.816Z,39.03
2018-08-19T10:43:53.379Z,40.10
2018-08-19T10:46:22.839Z,39.88
2018-08-19T10:48:52.039Z,38.60
2018-08-19T10:51:21.830Z,39.53
2018-08-19T10:53:51.779Z,40.01
2018-08-19T10:56:22.467Z,39.78
2018-08-19T10:58:55.640Z,39.42
2018-08-19T11:01:25.268Z,38.95
2018-08-19T11:03:55.289Z,40.32
2018-08-19T11:06:24.117Z,40.46
2018-08-19T11:08:54.376Z,40.93
2018-08-19T11:11:23.703Z,40.68
2018-08-19T11:13:52.624Z,41.75
2018-08-19T11:16:22.332Z,41.57
2018-08-19T11:18:52.323Z,41.10
2018-08-19T11:21:28.430Z,40.42
2018-08-19T11:23:58.602Z,40.53
2018-08-19T11:26:27.360Z,39.94
2018-08-19T11:28:59.407Z,40.13
2018-08-19T11:31:33.562Z,40.43
2018-08-19T11:34:07.381Z,41.07
2018-08-19T11:36:41.178Z,41.00
2018-08-19T11:39:12.837Z,40.95
2018-08-19T11:41:41.822Z,40.88
2018-08-19T11:44:16.095Z,41.26
2018-08-19T11:46:45.897Z,40.03
2018-08-19T11:49:16.964Z,40.30
2018-08-19T11:51:59.012Z,40.11
2018-08-19T11:54:30.280Z,39.48
2018-08-19T11:57:06.871Z,39.58
2018-08-19T11:59:38.190Z,39.52
2018-08-19T12:02:10.231Z,39.94
2018-08-19T12:04:39.490Z,40.31
2018-08-19T12:07:08.389Z,39.24
2018-08-19T12:09:37.249Z,39.22
2018-08-19T12:12:06.619Z,38.99
2018-08-19T12:14:37.004Z,39.41
2018-08-19T12:17:08.817Z,38.40
2018-08-19T12:19:40.316Z,38.23
2018-08-19T12:22:09.664Z,37.29
2018-08-19T12:24:46.518Z,36.99
2018-08-19T12:27:18.194Z,37.48
2018-08-19T12:29:47.446Z,37.90
2018-08-19T12:32:27.166Z,38.37
2018-08-19T12:35:00.291Z,37.86
2018-08-19T12:37:30.178Z,37.82
2018-08-19T12:40:00.726Z,37.44
2018-08-19T12:42:33.457Z,36.68
2018-08-19T12:45:09.005Z,35.68
2018-08-19T12:47:38.503Z,36.35
2018-08-19T12:50:11.696Z,36.09
2018-08-19T12:52:41.156Z,36.75
2018-08-19T12:55:13.048Z,37.06
2018-08-19T12:57:43.219Z,37.79
2018-08-19T13:00:31.815Z,37.47
2018-08-19T13:03:01.444Z,37.10
2018-08-19T13:05:30.261Z,36.87
2018-08-19T13:07:59.038Z,37.40
2018-08-19T13:10:36.748Z,37.19
2018-08-19T13:13:05.818Z,36.76
2018-08-19T13:15:34.601Z,38.25
2018-08-19T13:18:04.108Z,38.69
2018-08-19T13:20:32.876Z,38.40
2018-08-19T13:23:03.692Z,37.22
2018-08-19T13:25:33.008Z,37.48
2018-08-19T13:28:01.772Z,38.37
2018-08-19T13:30:30.637Z,38.44
2018-08-19T13:32:59.478Z,38.62
2018-08-19T13:35:28.351Z,37.75
2018-08-19T13:37:57.205Z,38.13
2018-08-19T13:40:25.970Z,38.65
2018-08-19T13:42:54.697Z,39.10
2018-08-19T13:45:26.416Z,39.14
2018-08-19T13:47:55.971Z,38.77
2018-08-19T13:50:24.747Z,37.80
2018-08-19T13:52:54.104Z,37.60
2018-08-19T13:55:37.930Z,38.45
2018-08-19T13:58:07.223Z,38.28
2018-08-19T14:00:36.995Z,38.33
2018-08-19T14:03:06.522Z,38.24
2018-08-19T14:05:35.639Z,38.24
2018-08-19T14:08:04.473Z,38.65
2018-08-19T14:10:33.311Z,37.81
2018-08-19T14:13:02.132Z,37.99
2018-08-19T14:15:31.740Z,37.16
2018-08-19T14:18:01.049Z,38.12
2018-08-19T14:20:29.882Z,36.79
2018-08-19T14:22:58.628Z,37.41
2018-08-19T14:25:27.512Z,37.33
2018-08-19T14:27:56.263Z,37.05
2018-08-19T14:30:25.180Z,37.08
2018-08-19T14:32:53.945Z,37.68
2018-08-19T14:35:22.990Z,37.13
2018-08-19T14:37:51.963Z,37.37
2018-08-19T14:40:21.249Z,36.45
2018-08-19T14:42:50.712Z,36.15
2018-08-19T14:45:20.510Z,36.30
2018-08-19T14:47:50.241Z,37.10
2018-08-19T14:50:20.841Z,35.88
2018-08-19T14:52:50.977Z,36.45
2018-08-19T14:55:20.486Z,37.51
2018-08-19T14:57:50.435Z,37.53
2018-08-19T15:00:19.919Z,37.11
2018-08-19T15:02:49.275Z,37.38
2018-08-19T15:05:20.891Z,37.71
2018-08-19T15:07:50.181Z,38.19
2018-08-19T15:10:24.244Z,38.41
2018-08-19T15:12:54.263Z,37.89
2018-08-19T15:15:23.079Z,38.04
2018-08-19T15:20:57.197Z,38.89
2018-08-19T15:23:26.757Z,38.30
2018-08-19T15:25:55.695Z,39.46
2018-08-19T15:28:24.496Z,39.68
2018-08-19T15:30:53.541Z,39.61
2018-08-19T15:33:22.596Z,40.40
2018-08-19T15:35:51.783Z,40.14
2018-08-19T15:38:20.973Z,40.11
2018-08-19T15:40:50.539Z,41.18
2018-08-19T15:43:19.333Z,39.92
2018-08-19T15:45:48.859Z,39.99
2018-08-19T15:48:18.617Z,40.74
2018-08-19T15:50:48.269Z,40.88
2018-08-19T15:53:18.561Z,39.47
2018-08-19T15:55:48.109Z,40.17
2018-08-19T15:58:17.442Z,40.01
2018-08-19T16:00:46.811Z,39.25
2018-08-19T16:03:16.436Z,39.36
2018-08-19T16:05:45.186Z,39.87
2018-08-19T16:08:13.937Z,40.63
2018-08-19T16:10:43.786Z,40.64
2018-08-19T16:13:13.261Z,40.08
2018-08-19T16:15:42.054Z,41.20
2018-08-19T16:18:11.484Z,41.37
2018-08-19T16:20:40.503Z,41.49
2018-08-19T16:23:09.474Z,41.18
2018-08-19T16:25:38.289Z,41.37
2018-08-19T16:28:07.085Z,42.41
2018-08-19T16:30:36.054Z,41.24
2018-08-19T16:33:04.901Z,42.55
2018-08-19T16:35:33.673Z,42.78
2018-08-19T16:38:02.522Z,42.87
2018-08-19T16:40:31.348Z,42.81
2018-08-19T16:43:00.325Z,42.39
2018-08-19T16:45:29.924Z,42.60
2018-08-19T16:47:59.350Z,42.84
2018-08-19T16:50:28.905Z,43.61
2018-08-19T16:52:58.188Z,44.24
2018-08-19T16:55:27.476Z,43.65
2018-08-19T16:57:56.680Z,43.42
2018-08-19T17:00:26.038Z,44.07
2018-08-19T17:02:55.678Z,43.75
2018-08-19T17:05:31.306Z,43.93
2018-08-19T17:08:00.476Z,44.07
2018-08-19T17:10:30.396Z,44.10
2018-08-19T17:13:00.044Z,43.87
2018-08-19T17:15:29.392Z,44.92
2018-08-19T17:17:59.033Z,44.25
2018-08-19T17:20:27.744Z,44.88
2018-08-19T17:22:57.064Z,45.35
2018-08-19T17:25:26.363Z,44.68
2018-08-19T17:27:55.388Z,44.61
2018-08-19T17:30:24.501Z,45.42
2018-08-19T17:32:58.798Z,46.25
2018-08-19T17:35:28.122Z,46.55
2018-08-19T17:37:56.888Z,45.92
2018-08-19T17:40:25.709Z,46.93
2018-08-19T17:42:55.048Z,46.67
2018-08-19T17:45:24.705Z,47.54
2018-08-19T17:47:54.648Z,47.85
2018-08-19T17:50:26.329Z,47.52
2018-08-19T17:52:58.189Z,48.72
2018-08-19T17:55:27.787Z,49.49
2018-08-19T17:57:58.789Z,49.72
2018-08-19T18:00:28.366Z,49.42
2018-08-19T18:02:58.028Z,49.53
2018-08-19T18:05:26.848Z,50.36
2018-08-19T18:07:56.219Z,50.07
2018-08-19T18:10:25.708Z,50.21
2018-08-19T18:12:55.181Z,50.82
2018-08-19T18:15:24.331Z,51.12
2018-08-19T18:17:59.569Z,50.94
2018-08-19T18:20:33.776Z,51.35
2018-08-19T18:23:03.528Z,51.70
2018-08-19T18:25:32.247Z,51.17
2018-08-19T18:28:10.828Z,51.83
2018-08-19T18:30:40.724Z,52.06
2018-08-19T18:33:09.493Z,52.41
2018-08-19T18:35:38.836Z,52.47
2018-08-19T18:38:27.646Z,52.77
2018-08-19T18:40:56.403Z,53.17
2018-08-19T18:43:25.213Z,53.87
2018-08-19T18:45:55.568Z,53.35
2018-08-19T18:48:24.437Z,54.60
2018-08-19T18:50:55.412Z,54.42
2018-08-19T18:53:25.273Z,54.56
2018-08-19T18:55:55.048Z,56.11
2018-08-19T18:58:24.044Z,56.25
2018-08-19T19:00:59.913Z,56.67
2018-08-19T19:03:29.224Z,57.19
2018-08-19T19:05:58.015Z,58.48
2018-08-19T19:08:26.772Z,58.56
2018-08-19T19:11:01.204Z,59.96
2018-08-19T19:13:30.728Z,61.37
2018-08-19T19:15:59.756Z,61.65
2018-08-19T19:18:29.130Z,61.43
2018-08-19T19:21:00.862Z,62.65
2018-08-19T19:23:33.768Z,63.24
2018-08-19T19:26:03.909Z,64.00
2018-08-19T19:28:32.735Z,63.83
2018-08-19T19:31:06.696Z,64.42
2018-08-19T19:33:36.972Z,64.56
2018-08-19T19:36:11.863Z,65.01
2018-08-19T19:38:47.545Z,65.43
2018-08-19T19:41:16.443Z,66.53
2018-08-19T19:43:46.381Z,66.75
2018-08-19T19:46:15.991Z,68.31
2018-08-19T19:48:44.739Z,68.56
2018-08-19T19:51:13.631Z,68.75
2018-08-19T19:53:43.108Z,69.39
2018-08-19T19:56:15.318Z,69.79
2018-08-19T19:58:46.446Z,70.42
2018-08-19T20:01:16.186Z,70.13
2018-08-19T20:03:53.020Z,71.11
2018-08-19T20:06:22.314Z,70.92
2018-08-19T20:08:53.342Z,71.70
2018-08-19T20:11:29.009Z,72.02
2018-08-19T20:13:59.897Z,72.37
2018-08-19T20:16:28.716Z,72.16
2018-08-19T20:18:58.248Z,73.29
2018-08-19T20:21:29.885Z,72.55
2018-08-19T20:23:59.764Z,72.92
2018-08-19T20:26:28.639Z,73.22
2018-08-19T20:28:58.889Z,72.38
2018-08-19T20:31:28.211Z,73.17
2018-08-19T20:33:57.744Z,73.14
2018-08-19T20:36:26.593Z,73.11
2018-08-19T20:38:55.392Z,73.40
2018-08-19T20:41:24.451Z,73.66
2018-08-19T20:43:54.354Z,73.34
2018-08-19T20:46:24.441Z,73.30
2018-08-19T20:48:53.738Z,73.56
2018-08-19T20:51:22.928Z,73.31
2018-08-19T20:53:52.663Z,72.73
2018-08-19T20:56:22.355Z,73.44
2018-08-19T20:58:51.757Z,74.41
2018-08-19T21:01:26.200Z,73.51
2018-08-19T21:03:55.587Z,74.59
2018-08-19T21:06:24.491Z,74.42
2018-08-19T21:08:54.806Z,74.57
2018-08-19T21:11:24.301Z,75.70
2018-08-19T21:13:53.999Z,74.72
2018-08-19T21:16:23.267Z,75.92
2018-08-19T21:18:55.435Z,75.66
2018-08-19T21:21:24.920Z,74.99
2018-08-19T21:23:54.420Z,75.56
2018-08-19T21:26:23.814Z,74.85
2018-08-19T21:29:01.709Z,76.22
2018-08-19T21:31:30.881Z,75.33
2018-08-19T21:34:00.486Z,74.93
2018-08-19T21:36:29.250Z,75.38
2018-08-19T21:38:58.127Z,75.46
2018-08-19T21:41:41.998Z,76.27
2018-08-19T21:44:11.362Z,75.15
2018-08-19T21:46:40.703Z,76.01
2018-08-19T21:49:09.624Z,75.89
2018-08-19T21:51:38.702Z,75.63
2018-08-19T21:54:09.334Z,75.84
2018-08-19T21:56:38.810Z,76.04
2018-08-19T21:59:25.317Z,76.58
2018-08-19T22:01:57.226Z,76.27
2018-08-19T22:04:27.290Z,76.92
2018-08-19T22:06:56.121Z,75.92
2018-08-19T22:09:33.127Z,76.45
2018-08-19T22:12:02.509Z,76.59
2018-08-19T22:14:32.127Z,76.10
2018-08-19T22:17:05.644Z,76.38
2018-08-19T22:19:35.506Z,76.62
2018-08-19T22:22:04.891Z,76.99
2018-08-19T22:24:33.891Z,77.62
2018-08-19T22:27:07.838Z,76.86
2018-08-19T22:29:36.602Z,77.00
2018-08-19T22:32:05.591Z,77.40
2018-08-19T22:34:35.858Z,77.60
2018-08-19T22:37:04.687Z,77.02
2018-08-19T22:39:33.538Z,77.26
2018-08-19T22:42:02.385Z,77.80
2018-08-19T22:44:31.948Z,78.22
2018-08-19T22:47:01.287Z,78.37
2018-08-19T22:49:30.132Z,77.63
2018-08-19T22:52:22.784Z,77.41
2018-08-19T22:54:55.015Z,77.97
2018-08-19T22:57:24.419Z,77.82
2018-08-19T22:59:54.106Z,78.42
2018-08-19T23:02:24.703Z,78.04
2018-08-19T23:04:53.715Z,77.85
2018-08-19T23:07:22.775Z,78.06
2018-08-19T23:09:52.721Z,78.58
2018-08-19T23:12:21.913Z,78.58
2018-08-19T23:15:01.727Z,78.27
2018-08-19T23:17:31.263Z,78.89
2018-08-19T23:20:00.011Z,78.22
2018-08-19T23:22:29.347Z,78.14
2018-08-19T23:24:58.110Z,77.92
2018-08-19T23:27:27.131Z,79.38
2018-08-19T23:29:55.966Z,78.66
2018-08-19T23:32:25.090Z,79.09
2018-08-19T23:34:54.385Z,78.40
2018-08-19T23:37:23.931Z,78.57
2018-08-19T23:39:52.788Z,78.84
2018-08-19T23:42:21.962Z,78.91
2018-08-19T23:44:51.512Z,79.26
2018-08-19T23:47:20.704Z,79.33
2018-08-19T23:49:49.652Z,79.94
2018-08-19T23:52:19.238Z,80.40
2018-08-19T23:54:48.607Z,80.17
2018-08-19T23:57:18.144Z,79.42
2018-08-19T23:59:47.620Z,79.30
